CST,Max TemperatureF,Mean TemperatureF,Min TemperatureF,Max Dew PointF,MeanDew PointF,Min DewpointF,Max Humidity, Mean Humidity, Min Humidity, Max Sea Level PressureIn, Mean Sea Level PressureIn, Min Sea Level PressureIn, Max VisibilityMiles, Mean VisibilityMiles, Min VisibilityMiles, Max Wind SpeedMPH, Mean Wind SpeedMPH, Max Gust SpeedMPH,PrecipitationIn, CloudCover, Events, WindDirDegrees
2013-11-1,44,42,39,43,39,36,100,90,81,29.84,29.53,29.31,10,9,4,21,14,30,0.00,8,,267
2013-11-2,42,38,35,39,36,34,100,89,70,30.15,29.92,29.73,10,8,3,12,7,,0.00,8,,306
2013-11-3,48,38,28,37,34,28,100,85,54,30.30,30.23,30.15,10,9,1,13,3,17,0.00,3,,134
2013-11-4,53,47,41,43,39,36,87,75,54,30.26,30.18,30.08,10,10,10,18,11,24,0.00,4,,168
2013-11-5,53,50,46,48,45,43,100,87,72,30.25,30.11,29.91,10,9,4,15,6,29,0.00,8,Rain,168
2013-11-6,53,42,30,54,38,23,100,86,65,30.14,29.95,29.75,10,9,2,17,12,28,0.08,5,Rain,253
2013-11-7,37,30,24,30,27,23,93,81,65,30.21,30.18,30.15,10,10,10,14,8,18,0.00,4,,277
2013-11-8,44,33,24,32,28,23,100,78,61,30.29,30.13,29.86,10,9,4,15,7,22,0.00,2,,203
2013-11-9,50,44,37,37,32,23,76,64,56,30.05,29.88,29.76,10,10,10,28,15,37,0.00,6,,247
2013-11-10,44,40,35,30,28,27,75,64,49,30.30,30.18,30.06,10,10,10,21,13,32,0.00,6,,257
2013-11-11,42,32,21,34,23,12,100,73,61,30.52,30.27,30.04,10,9,0,14,9,16,0.00,6,Rain-Snow,295
2013-11-12,28,22,17,16,14,12,86,72,51,30.68,30.58,30.52,10,10,10,16,9,,0.00,0,,286
2013-11-13,39,27,15,18,14,10,86,61,33,30.54,30.30,30.07,10,10,10,21,11,31,0.00,0,,230
2013-11-14,42,36,30,28,23,16,70,58,46,30.06,29.96,29.90,10,10,10,17,12,28,0.00,1,,214
2013-11-15,51,43,35,32,29,27,87,67,44,29.94,29.91,29.89,10,10,10,10,7,,0.00,3,Rain,198
2013-11-16,55,45,35,54,44,32,100,93,87,29.91,29.71,29.53,10,8,1,18,9,28,0.00,6,Rain-Thunderstorm,176
2013-11-17,62,50,37,59,47,32,100,90,76,29.64,29.42,29.11,10,9,3,30,13,48,0.02,7,Rain-Thunderstorm,234
2013-11-18,64,45,26,45,25,19,87,75,49,30.24,29.96,29.65,10,10,10,28,18,37,0.00,4,,288
2013-11-19,37,29,21,30,24,19,93,84,52,30.36,30.29,30.24,10,10,10,10,6,,0.00,0,,170
2013-11-20,39,34,30,34,29,23,100,82,52,30.27,30.19,30.11,10,8,2,16,10,23,0.02,4,Rain,150
2013-11-21,42,38,33,37,36,34,100,92,81,30.23,30.16,30.11,7,5,4,9,4,,0.00,8,Rain,332
2013-11-22,35,30,23,34,25,14,100,81,60,30.45,30.36,30.22,10,8,3,14,9,17,0.00,4,Rain-Snow,302
2013-11-23,30,21,10,25,7,1,80,64,49,30.68,30.55,30.38,10,10,10,23,12,34,0.00,2,,303
2013-11-24,24,15,6,7,3,0,85,60,34,30.67,30.50,30.26,10,10,10,17,10,31,0.00,0,,246
2013-11-25,28,24,19,25,17,5,93,75,50,30.26,30.10,30.01,10,8,0,16,12,29,0.00,6,Snow,225
2013-11-26,30,21,12,25,15,3,86,73,51,30.17,30.07,30.00,10,10,0,20,9,30,0.00,7,Snow,290
2013-11-27,23,16,8,12,8,3,85,71,54,30.22,30.18,30.15,10,10,10,17,10,20,0.00,3,,299
2013-11-28,24,18,12,16,12,10,92,74,59,30.48,30.28,30.16,10,10,10,13,3,,0.00,5,,241
2013-11-29,28,17,6,23,15,5,100,81,51,30.62,30.49,30.35,10,10,10,10,4,16,0.00,1,,181
2013-11-30,42,34,26,30,25,19,93,77,57,30.35,30.16,30.02,10,10,10,13,7,16,0.00,2,,212